UAE209 LGAV-KEWR
Flight info
| Callsign | UAE209 |
|---|---|
| Flight time | N/A |
| Altitude | 34000 |
| Route | DCT KOR UL53 IXONI DCT YNN UL613 VJOSA DCT PAPIZ DCT CRAYE DCT GISAM DCT RILIM DCT LABIN DCT VIC DCT RESIA DCT ELMUR DCT RIPUS DCT DITON DCT HOC DCT LUL DCT RLP DCT ROTSI DCT KOTUN DCT AMAXA DCT VESAN DCT RATUK DCT SOVAT L613 SANDY DCT OKSAW DCT TEWXI DCT VATRY DCT DOGAL/M084F340 DCT 55N020W 56N030W 56N040W 54N050W DCT NEEKO/N0481F340 N622E TAFFY/N0488F380 DCT KJOHN DCT HANAA FLOSI4 |
| Aircraft | B77W/H-SDE1E2E3FGHIJ2J3J4J5M1RWXY/LB1D1 |
Departure
| Time | N/A |
|---|---|
| Airport | Athens Eleftherios Venizelos International Airport (LGAV) |
Arrival
| Time | 2026-05-01 10:35 |
|---|---|
| Airport | Newark Liberty International Airport (KEWR) |
| Time | Latitude | Longitude | Altitude | Speed | Heading |
|---|---|---|---|---|---|
| 2026-05-01 10:27 | 40.74912 | -74.33204 | 4927 ft | 263 kts | 47° |
| 2026-05-01 10:28 | 40.76058 | -74.31333 | 4667 ft | 261 kts | 47° |
| 2026-05-01 10:28 | 40.78315 | -74.27641 | 4134 ft | 256 kts | 47° |
| 2026-05-01 10:28 | 40.79409 | -74.25847 | 3897 ft | 253 kts | 47° |
| 2026-05-01 10:29 | 40.81600 | -74.22223 | 3351 ft | 248 kts | 47° |
| 2026-05-01 10:29 | 40.82644 | -74.20482 | 3172 ft | 242 kts | 47° |
| 2026-05-01 10:30 | 40.84553 | -74.17206 | 2879 ft | 227 kts | 54° |
| 2026-05-01 10:30 | 40.84500 | -74.13218 | 2500 ft | 232 kts | 121° |
| 2026-05-01 10:31 | 40.81959 | -74.10956 | 2110 ft | 215 kts | 169° |
| 2026-05-01 10:31 | 40.79239 | -74.10605 | 1721 ft | 181 kts | 185° |
| 2026-05-01 10:32 | 40.77077 | -74.11526 | 1518 ft | 158 kts | 208° |
| 2026-05-01 10:32 | 40.76075 | -74.12122 | 1480 ft | 160 kts | 211° |
| 2026-05-01 10:32 | 40.74106 | -74.13380 | 974 ft | 148 kts | 210° |
| 2026-05-01 10:33 | 40.72296 | -74.14533 | 585 ft | 143 kts | 210° |
| 2026-05-01 10:33 | 40.70531 | -74.15654 | 232 ft | 143 kts | 211° |
| 2026-05-01 10:34 | 40.69638 | -74.16229 | 42 ft | 142 kts | 209° |
| 2026-05-01 10:34 | 40.68825 | -74.16748 | 26 ft | 110 kts | 206° |
| 2026-05-01 10:34 | 40.68304 | -74.17080 | 27 ft | 56 kts | 206° |
| 2026-05-01 10:35 | 40.68029 | -74.17268 | 29 ft | 15 kts | 222° |
| 2026-05-01 10:35 | 40.67972 | -74.17378 | 30 ft | 15 kts | 248° |
| 2026-05-01 10:35 | 40.67953 | -74.17509 | 29 ft | 15 kts | 270° |
| 2026-05-01 10:35 | 40.67982 | -74.17639 | 29 ft | 15 kts | 295° |
| 2026-05-01 10:36 | 40.68077 | -74.17860 | 27 ft | 10 kts | 336° |
| 2026-05-01 10:36 | 40.68144 | -74.17839 | 27 ft | 10 kts | 24° |
| 2026-05-01 10:36 | 40.68211 | -74.17794 | 27 ft | 11 kts | 27° |
| 2026-05-01 10:37 | 40.68281 | -74.17749 | 27 ft | 12 kts | 24° |
| 2026-05-01 10:37 | 40.68538 | -74.17590 | 27 ft | 24 kts | 26° |
| 2026-05-01 10:37 | 40.68689 | -74.17494 | 27 ft | 24 kts | 26° |
| 2026-05-01 10:38 | 40.68839 | -74.17397 | 27 ft | 24 kts | 25° |
| 2026-05-01 10:38 | 40.68987 | -74.17304 | 27 ft | 21 kts | 26° |
| 2026-05-01 10:38 | 40.69079 | -74.17253 | 27 ft | 8 kts | 355° |
| 2026-05-01 10:38 | 40.69107 | -74.17309 | 27 ft | 8 kts | 286° |
| 2026-05-01 10:39 | 40.69138 | -74.17360 | 27 ft | 4 kts | 318° |
| 2026-05-01 10:39 | 40.69142 | -74.17365 | 27 ft | 0 kts | 318° |